sensor_id;sensor_type;location;lat;lon;timestamp;temperature;humidity
21271;DHT22;10795;50.796;3.860;2022-09-21T00:02:06;9.10;99.90
21271;DHT22;10795;50.796;3.860;2022-09-21T00:04:32;9.10;99.90
21271;DHT22;10795;50.796;3.860;2022-09-21T00:06:57;9.10;99.90
21271;DHT22;10795;50.796;3.860;2022-09-21T00:09:23;9.10;99.90
21271;DHT22;10795;50.796;3.860;2022-09-21T00:11:52;9.20;99.90
21271;DHT22;10795;50.796;3.860;2022-09-21T00:14:18;9.30;99.90
21271;DHT22;10795;50.796;3.860;2022-09-21T00:16:44;9.40;99.90
21271;DHT22;10795;50.796;3.860;2022-09-21T00:19:10;9.30;99.90
21271;DHT22;10795;50.796;3.860;2022-09-21T00:21:37;9.30;99.90
21271;DHT22;10795;50.796;3.860;2022-09-21T00:24:04;9.10;99.90
21271;DHT22;10795;50.796;3.860;2022-09-21T00:26:30;9.10;99.90
21271;DHT22;10795;50.796;3.860;2022-09-21T00:28:58;9.00;99.90
21271;DHT22;10795;50.796;3.860;2022-09-21T00:31:26;8.90;99.90
21271;DHT22;10795;50.796;3.860;2022-09-21T00:33:52;8.70;99.90
21271;DHT22;10795;50.796;3.860;2022-09-21T00:36:21;8.70;99.90
21271;DHT22;10795;50.796;3.860;2022-09-21T00:38:53;8.60;99.90
21271;DHT22;10795;50.796;3.860;2022-09-21T00:41:19;8.50;99.90
21271;DHT22;10795;50.796;3.860;2022-09-21T00:43:48;8.60;99.90
21271;DHT22;10795;50.796;3.860;2022-09-21T00:46:24;8.70;99.90
21271;DHT22;10795;50.796;3.860;2022-09-21T00:48:50;9.00;99.90
21271;DHT22;10795;50.796;3.860;2022-09-21T00:51:16;9.10;99.90
21271;DHT22;10795;50.796;3.860;2022-09-21T00:53:43;9.40;99.90
21271;DHT22;10795;50.796;3.860;2022-09-21T00:56:10;9.30;99.90
21271;DHT22;10795;50.796;3.860;2022-09-21T00:58:43;9.20;99.90
21271;DHT22;10795;50.796;3.860;2022-09-21T01:01:11;9.10;99.90
21271;DHT22;10795;50.796;3.860;2022-09-21T01:03:39;9.00;99.90
21271;DHT22;10795;50.796;3.860;2022-09-21T01:06:14;8.90;99.90
21271;DHT22;10795;50.796;3.860;2022-09-21T01:08:43;8.80;99.90
21271;DHT22;10795;50.796;3.860;2022-09-21T01:31:04;8.60;99.90
21271;DHT22;10795;50.796;3.860;2022-09-21T01:33:38;8.40;99.90
21271;DHT22;10795;50.796;3.860;2022-09-21T01:36:11;8.40;99.90
21271;DHT22;10795;50.796;3.860;2022-09-21T01:38:44;8.50;99.90
21271;DHT22;10795;50.796;3.860;2022-09-21T01:41:17;8.90;99.90
21271;DHT22;10795;50.796;3.860;2022-09-21T01:43:48;8.90;99.90
21271;DHT22;10795;50.796;3.860;2022-09-21T01:46:18;8.90;99.90
21271;DHT22;10795;50.796;3.860;2022-09-21T01:48:48;8.80;99.90
21271;DHT22;10795;50.796;3.860;2022-09-21T01:51:16;8.70;99.90
21271;DHT22;10795;50.796;3.860;2022-09-21T01:53:53;8.60;99.90
21271;DHT22;10795;50.796;3.860;2022-09-21T01:56:31;8.60;99.90
21271;DHT22;10795;50.796;3.860;2022-09-21T02:02:33;8.70;99.90
21271;DHT22;10795;50.796;3.860;2022-09-21T02:04:33;8.60;99.90
21271;DHT22;10795;50.796;3.860;2022-09-21T02:07:00;8.50;99.90
21271;DHT22;10795;50.796;3.860;2022-09-21T02:09:25;8.40;99.90
21271;DHT22;10795;50.796;3.860;2022-09-21T02:11:52;8.30;99.90
21271;DHT22;10795;50.796;3.860;2022-09-21T02:14:22;8.30;99.90
21271;DHT22;10795;50.796;3.860;2022-09-21T02:19:45;8.30;99.90
21271;DHT22;10795;50.796;3.860;2022-09-21T02:22:18;8.20;99.90
21271;DHT22;10795;50.796;3.860;2022-09-21T02:24:53;8.10;99.90
21271;DHT22;10795;50.796;3.860;2022-09-21T02:27:27;8.00;99.90
21271;DHT22;10795;50.796;3.860;2022-09-21T02:32:48;8.00;99.90
21271;DHT22;10795;50.796;3.860;2022-09-21T02:43:27;8.10;99.90
21271;DHT22;10795;50.796;3.860;2022-09-21T02:45:59;8.00;99.90
21271;DHT22;10795;50.796;3.860;2022-09-21T02:48:36;7.90;99.90
21271;DHT22;10795;50.796;3.860;2022-09-21T02:51:14;7.80;99.90
21271;DHT22;10795;50.796;3.860;2022-09-21T02:53:42;7.80;99.90
21271;DHT22;10795;50.796;3.860;2022-09-21T02:56:09;7.70;99.90
21271;DHT22;10795;50.796;3.860;2022-09-21T02:58:51;7.70;99.90
21271;DHT22;10795;50.796;3.860;2022-09-21T03:01:22;7.80;99.90
21271;DHT22;10795;50.796;3.860;2022-09-21T03:03:49;7.80;99.90
21271;DHT22;10795;50.796;3.860;2022-09-21T03:06:15;7.80;99.90
21271;DHT22;10795;50.796;3.860;2022-09-21T03:08:40;7.80;99.90
21271;DHT22;10795;50.796;3.860;2022-09-21T03:11:06;7.70;99.90
21271;DHT22;10795;50.796;3.860;2022-09-21T03:13:32;7.70;99.90
21271;DHT22;10795;50.796;3.860;2022-09-21T03:16:04;7.60;99.90
21271;DHT22;10795;50.796;3.860;2022-09-21T03:18:31;7.60;99.90
21271;DHT22;10795;50.796;3.860;2022-09-21T03:20:58;7.60;99.90
21271;DHT22;10795;50.796;3.860;2022-09-21T03:23:24;7.60;99.90
21271;DHT22;10795;50.796;3.860;2022-09-21T03:25:50;7.70;99.90
21271;DHT22;10795;50.796;3.860;2022-09-21T03:28:17;7.70;99.90
21271;DHT22;10795;50.796;3.860;2022-09-21T03:30:43;7.70;99.90
21271;DHT22;10795;50.796;3.860;2022-09-21T03:33:09;7.60;99.90
21271;DHT22;10795;50.796;3.860;2022-09-21T03:35:37;7.70;99.90
21271;DHT22;10795;50.796;3.860;2022-09-21T03:38:04;7.80;99.90
21271;DHT22;10795;50.796;3.860;2022-09-21T03:40:30;7.80;99.90
21271;DHT22;10795;50.796;3.860;2022-09-21T03:42:56;7.90;99.90
21271;DHT22;10795;50.796;3.860;2022-09-21T03:45:22;7.90;99.90
21271;DHT22;10795;50.796;3.860;2022-09-21T03:47:49;7.80;99.90
21271;DHT22;10795;50.796;3.860;2022-09-21T03:50:15;7.80;99.90
21271;DHT22;10795;50.796;3.860;2022-09-21T03:52:41;7.90;99.90
21271;DHT22;10795;50.796;3.860;2022-09-21T03:55:08;7.80;99.90
21271;DHT22;10795;50.796;3.860;2022-09-21T03:57:35;7.70;99.90
21271;DHT22;10795;50.796;3.860;2022-09-21T04:00:06;7.50;99.90
21271;DHT22;10795;50.796;3.860;2022-09-21T04:02:34;7.40;99.90
21271;DHT22;10795;50.796;3.860;2022-09-21T04:05:00;7.50;99.90
21271;DHT22;10795;50.796;3.860;2022-09-21T04:07:30;7.70;99.90
21271;DHT22;10795;50.796;3.860;2022-09-21T04:09:58;8.00;99.90
21271;DHT22;10795;50.796;3.860;2022-09-21T04:12:24;8.00;99.90
21271;DHT22;10795;50.796;3.860;2022-09-21T04:14:49;7.90;99.90
21271;DHT22;10795;50.796;3.860;2022-09-21T04:17:15;7.70;99.90
21271;DHT22;10795;50.796;3.860;2022-09-21T04:19:41;7.80;99.90
21271;DHT22;10795;50.796;3.860;2022-09-21T04:22:07;7.60;99.90
21271;DHT22;10795;50.796;3.860;2022-09-21T04:24:33;7.40;99.90
21271;DHT22;10795;50.796;3.860;2022-09-21T04:26:59;7.20;99.90
21271;DHT22;10795;50.796;3.860;2022-09-21T04:29:24;7.30;99.90
21271;DHT22;10795;50.796;3.860;2022-09-21T04:31:50;7.10;99.90
21271;DHT22;10795;50.796;3.860;2022-09-21T04:34:16;7.00;99.90
21271;DHT22;10795;50.796;3.860;2022-09-21T04:36:41;7.10;99.90
21271;DHT22;10795;50.796;3.860;2022-09-21T04:39:08;7.20;99.90
21271;DHT22;10795;50.796;3.860;2022-09-21T04:41:33;7.20;99.90
21271;DHT22;10795;50.796;3.860;2022-09-21T04:43:59;7.20;99.90
21271;DHT22;10795;50.796;3.860;2022-09-21T04:46:25;7.20;99.90
21271;DHT22;10795;50.796;3.860;2022-09-21T04:48:51;7.20;99.90
21271;DHT22;10795;50.796;3.860;2022-09-21T04:51:17;7.10;99.90
21271;DHT22;10795;50.796;3.860;2022-09-21T04:53:43;7.40;99.90
21271;DHT22;10795;50.796;3.860;2022-09-21T04:56:12;7.40;99.90
21271;DHT22;10795;50.796;3.860;2022-09-21T04:58:38;7.40;99.90
21271;DHT22;10795;50.796;3.860;2022-09-21T05:01:03;7.70;99.90
21271;DHT22;10795;50.796;3.860;2022-09-21T05:03:30;7.60;99.90
21271;DHT22;10795;50.796;3.860;2022-09-21T05:05:57;7.40;99.90
21271;DHT22;10795;50.796;3.860;2022-09-21T05:08:24;7.30;99.90
21271;DHT22;10795;50.796;3.860;2022-09-21T05:11:15;7.30;99.90
21271;DHT22;10795;50.796;3.860;2022-09-21T05:13:41;7.30;99.90
21271;DHT22;10795;50.796;3.860;2022-09-21T05:16:07;7.30;99.90
21271;DHT22;10795;50.796;3.860;2022-09-21T05:18:34;7.30;99.90
21271;DHT22;10795;50.796;3.860;2022-09-21T05:21:01;7.30;99.90
21271;DHT22;10795;50.796;3.860;2022-09-21T05:23:29;7.20;99.90
21271;DHT22;10795;50.796;3.860;2022-09-21T05:25:56;7.10;99.90
21271;DHT22;10795;50.796;3.860;2022-09-21T05:28:23;7.10;99.90
21271;DHT22;10795;50.796;3.860;2022-09-21T05:33:28;7.10;99.90
21271;DHT22;10795;50.796;3.860;2022-09-21T05:36:35;6.90;99.90
21271;DHT22;10795;50.796;3.860;2022-09-21T05:39:04;6.80;99.90
21271;DHT22;10795;50.796;3.860;2022-09-21T05:41:30;6.70;99.90
21271;DHT22;10795;50.796;3.860;2022-09-21T05:43:56;6.90;99.90
21271;DHT22;10795;50.796;3.860;2022-09-21T05:49:35;7.10;99.90
21271;DHT22;10795;50.796;3.860;2022-09-21T05:55:29;7.10;99.90
21271;DHT22;10795;50.796;3.860;2022-09-21T06:03:29;7.50;99.90
21271;DHT22;10795;50.796;3.860;2022-09-21T06:05:56;7.60;99.90
21271;DHT22;10795;50.796;3.860;2022-09-21T06:08:23;7.60;99.90
21271;DHT22;10795;50.796;3.860;2022-09-21T06:10:49;7.50;99.90
21271;DHT22;10795;50.796;3.860;2022-09-21T06:13:15;7.60;99.90
21271;DHT22;10795;50.796;3.860;2022-09-21T06:15:41;7.40;99.90
21271;DHT22;10795;50.796;3.860;2022-09-21T06:18:08;7.50;99.90
21271;DHT22;10795;50.796;3.860;2022-09-21T06:20:34;7.60;99.90
21271;DHT22;10795;50.796;3.860;2022-09-21T06:23:04;7.60;99.90
21271;DHT22;10795;50.796;3.860;2022-09-21T06:25:30;7.50;99.90
21271;DHT22;10795;50.796;3.860;2022-09-21T06:28:01;7.50;99.90
21271;DHT22;10795;50.796;3.860;2022-09-21T06:30:29;7.70;99.90
21271;DHT22;10795;50.796;3.860;2022-09-21T06:32:58;7.90;99.90
21271;DHT22;10795;50.796;3.860;2022-09-21T06:35:26;8.00;99.90
21271;DHT22;10795;50.796;3.860;2022-09-21T06:37:55;8.80;99.90
21271;DHT22;10795;50.796;3.860;2022-09-21T06:40:21;9.80;99.90
21271;DHT22;10795;50.796;3.860;2022-09-21T06:42:47;10.30;99.90
21271;DHT22;10795;50.796;3.860;2022-09-21T06:45:13;9.70;99.90
21271;DHT22;10795;50.796;3.860;2022-09-21T06:47:38;9.50;99.90
21271;DHT22;10795;50.796;3.860;2022-09-21T06:50:04;9.70;99.90
21271;DHT22;10795;50.796;3.860;2022-09-21T06:52:30;9.90;99.90
21271;DHT22;10795;50.796;3.860;2022-09-21T06:54:56;10.00;99.90
21271;DHT22;10795;50.796;3.860;2022-09-21T06:57:22;10.40;99.90
21271;DHT22;10795;50.796;3.860;2022-09-21T06:59:48;10.40;99.90
21271;DHT22;10795;50.796;3.860;2022-09-21T07:02:14;10.50;99.90
21271;DHT22;10795;50.796;3.860;2022-09-21T07:04:40;10.80;99.90
21271;DHT22;10795;50.796;3.860;2022-09-21T07:07:06;11.10;99.90
21271;DHT22;10795;50.796;3.860;2022-09-21T07:09:32;11.20;99.90
21271;DHT22;10795;50.796;3.860;2022-09-21T07:11:57;11.60;99.90
21271;DHT22;10795;50.796;3.860;2022-09-21T07:14:24;12.10;99.90
21271;DHT22;10795;50.796;3.860;2022-09-21T07:16:49;12.50;99.90
21271;DHT22;10795;50.796;3.860;2022-09-21T07:19:17;13.00;99.90
21271;DHT22;10795;50.796;3.860;2022-09-21T07:21:43;13.20;99.90
21271;DHT22;10795;50.796;3.860;2022-09-21T07:24:09;13.40;99.90
21271;DHT22;10795;50.796;3.860;2022-09-21T07:26:35;13.60;99.90
21271;DHT22;10795;50.796;3.860;2022-09-21T07:29:01;13.70;99.90
21271;DHT22;10795;50.796;3.860;2022-09-21T07:31:27;14.00;99.90
21271;DHT22;10795;50.796;3.860;2022-09-21T07:33:56;14.30;99.90
21271;DHT22;10795;50.796;3.860;2022-09-21T07:36:24;14.80;99.90
21271;DHT22;10795;50.796;3.860;2022-09-21T07:38:51;15.00;99.90
21271;DHT22;10795;50.796;3.860;2022-09-21T07:41:19;15.10;99.90
21271;DHT22;10795;50.796;3.860;2022-09-21T07:43:44;15.20;99.90
21271;DHT22;10795;50.796;3.860;2022-09-21T07:46:13;15.10;99.90
21271;DHT22;10795;50.796;3.860;2022-09-21T07:48:39;15.20;99.90
21271;DHT22;10795;50.796;3.860;2022-09-21T07:51:07;15.60;99.90
21271;DHT22;10795;50.796;3.860;2022-09-21T07:53:35;15.80;99.90
21271;DHT22;10795;50.796;3.860;2022-09-21T07:56:03;16.10;99.90
21271;DHT22;10795;50.796;3.860;2022-09-21T07:58:29;16.30;99.90
21271;DHT22;10795;50.796;3.860;2022-09-21T08:01:14;16.30;99.90
21271;DHT22;10795;50.796;3.860;2022-09-21T08:03:40;16.70;99.90
21271;DHT22;10795;50.796;3.860;2022-09-21T08:06:06;16.90;99.90
21271;DHT22;10795;50.796;3.860;2022-09-21T08:08:32;17.40;99.90
21271;DHT22;10795;50.796;3.860;2022-09-21T08:11:05;17.60;99.90
21271;DHT22;10795;50.796;3.860;2022-09-21T08:13:31;17.80;99.90
21271;DHT22;10795;50.796;3.860;2022-09-21T08:15:58;18.00;99.90
21271;DHT22;10795;50.796;3.860;2022-09-21T08:18:24;18.30;99.90
21271;DHT22;10795;50.796;3.860;2022-09-21T08:20:54;18.70;99.90
21271;DHT22;10795;50.796;3.860;2022-09-21T08:23:20;19.20;99.90
21271;DHT22;10795;50.796;3.860;2022-09-21T08:25:46;18.60;99.90
21271;DHT22;10795;50.796;3.860;2022-09-21T08:28:13;18.80;99.90
21271;DHT22;10795;50.796;3.860;2022-09-21T08:30:39;18.90;99.90
21271;DHT22;10795;50.796;3.860;2022-09-21T08:33:05;19.40;99.90
21271;DHT22;10795;50.796;3.860;2022-09-21T08:35:32;19.50;99.90
21271;DHT22;10795;50.796;3.860;2022-09-21T08:37:59;19.40;99.90
21271;DHT22;10795;50.796;3.860;2022-09-21T08:40:25;19.30;99.90
21271;DHT22;10795;50.796;3.860;2022-09-21T08:45:24;20.20;99.90
21271;DHT22;10795;50.796;3.860;2022-09-21T08:47:52;20.00;99.90
21271;DHT22;10795;50.796;3.860;2022-09-21T08:52:57;20.60;99.90
21271;DHT22;10795;50.796;3.860;2022-09-21T08:55:25;21.30;99.90
21271;DHT22;10795;50.796;3.860;2022-09-21T08:57:52;21.10;99.90
21271;DHT22;10795;50.796;3.860;2022-09-21T09:00:18;21.20;99.90
21271;DHT22;10795;50.796;3.860;2022-09-21T09:08:12;21.80;99.90
21271;DHT22;10795;50.796;3.860;2022-09-21T09:13:50;21.60;99.90
21271;DHT22;10795;50.796;3.860;2022-09-21T09:16:26;21.90;99.90
21271;DHT22;10795;50.796;3.860;2022-09-21T09:19:05;22.20;99.90
21271;DHT22;10795;50.796;3.860;2022-09-21T09:21:39;22.30;99.90
21271;DHT22;10795;50.796;3.860;2022-09-21T09:24:18;22.20;99.90
21271;DHT22;10795;50.796;3.860;2022-09-21T09:27:14;22.00;99.90
21271;DHT22;10795;50.796;3.860;2022-09-21T09:35:32;23.40;99.90
21271;DHT22;10795;50.796;3.860;2022-09-21T09:38:35;22.70;99.90
21271;DHT22;10795;50.796;3.860;2022-09-21T09:41:30;23.00;99.90
21271;DHT22;10795;50.796;3.860;2022-09-21T09:51:38;24.00;99.90
21271;DHT22;10795;50.796;3.860;2022-09-21T09:54:07;23.10;99.90
21271;DHT22;10795;50.796;3.860;2022-09-21T09:56:37;23.70;99.90
21271;DHT22;10795;50.796;3.860;2022-09-21T09:59:04;24.40;99.90
21271;DHT22;10795;50.796;3.860;2022-09-21T10:01:42;24.70;99.90
21271;DHT22;10795;50.796;3.860;2022-09-21T10:04:10;24.30;99.90
21271;DHT22;10795;50.796;3.860;2022-09-21T10:06:37;24.80;99.90
21271;DHT22;10795;50.796;3.860;2022-09-21T10:11:50;24.70;99.90
21271;DHT22;10795;50.796;3.860;2022-09-21T10:14:28;24.60;99.90
21271;DHT22;10795;50.796;3.860;2022-09-21T10:17:01;24.80;99.90
21271;DHT22;10795;50.796;3.860;2022-09-21T10:19:29;24.70;99.90
21271;DHT22;10795;50.796;3.860;2022-09-21T10:21:57;24.90;99.90
21271;DHT22;10795;50.796;3.860;2022-09-21T10:24:26;24.50;99.90
21271;DHT22;10795;50.796;3.860;2022-09-21T10:29:44;24.30;99.90
21271;DHT22;10795;50.796;3.860;2022-09-21T10:32:28;24.20;99.90
21271;DHT22;10795;50.796;3.860;2022-09-21T10:37:31;24.10;99.90
21271;DHT22;10795;50.796;3.860;2022-09-21T10:40:25;25.00;99.90
21271;DHT22;10795;50.796;3.860;2022-09-21T10:42:54;25.20;99.90
21271;DHT22;10795;50.796;3.860;2022-09-21T10:45:29;26.00;99.90
21271;DHT22;10795;50.796;3.860;2022-09-21T10:47:56;26.50;99.90
21271;DHT22;10795;50.796;3.860;2022-09-21T10:50:24;26.60;99.90
21271;DHT22;10795;50.796;3.860;2022-09-21T10:53:01;25.80;99.90
21271;DHT22;10795;50.796;3.860;2022-09-21T10:56:03;25.10;99.90
21271;DHT22;10795;50.796;3.860;2022-09-21T10:58:31;25.90;99.90
21271;DHT22;10795;50.796;3.860;2022-09-21T11:01:11;26.30;99.90
21271;DHT22;10795;50.796;3.860;2022-09-21T11:03:48;26.00;99.90
21271;DHT22;10795;50.796;3.860;2022-09-21T11:06:34;26.50;99.90
21271;DHT22;10795;50.796;3.860;2022-09-21T11:09:06;26.70;99.90
21271;DHT22;10795;50.796;3.860;2022-09-21T11:11:38;26.20;99.90
21271;DHT22;10795;50.796;3.860;2022-09-21T11:14:32;26.40;99.90
21271;DHT22;10795;50.796;3.860;2022-09-21T11:25:17;25.00;99.90
21271;DHT22;10795;50.796;3.860;2022-09-21T11:27:48;24.50;99.90
21271;DHT22;10795;50.796;3.860;2022-09-21T11:30:18;25.10;99.90
21271;DHT22;10795;50.796;3.860;2022-09-21T11:33:09;24.20;99.90
21271;DHT22;10795;50.796;3.860;2022-09-21T11:38:17;25.20;99.90
21271;DHT22;10795;50.796;3.860;2022-09-21T11:57:32;25.90;99.90
21271;DHT22;10795;50.796;3.860;2022-09-21T12:00:06;25.70;99.90
21271;DHT22;10795;50.796;3.860;2022-09-21T12:05:26;26.60;99.90
21271;DHT22;10795;50.796;3.860;2022-09-21T12:21:48;25.90;99.90
21271;DHT22;10795;50.796;3.860;2022-09-21T12:24:21;26.20;99.90
21271;DHT22;10795;50.796;3.860;2022-09-21T12:26:51;26.00;99.90
21271;DHT22;10795;50.796;3.860;2022-09-21T12:29:43;26.10;99.90
21271;DHT22;10795;50.796;3.860;2022-09-21T12:32:32;26.40;99.90
21271;DHT22;10795;50.796;3.860;2022-09-21T12:35:02;26.60;99.90
21271;DHT22;10795;50.796;3.860;2022-09-21T12:42:52;26.40;99.90
21271;DHT22;10795;50.796;3.860;2022-09-21T12:45:27;26.40;99.90
21271;DHT22;10795;50.796;3.860;2022-09-21T12:50:29;25.90;99.90
21271;DHT22;10795;50.796;3.860;2022-09-21T12:52:59;25.10;99.90
21271;DHT22;10795;50.796;3.860;2022-09-21T12:55:50;25.40;99.90
21271;DHT22;10795;50.796;3.860;2022-09-21T13:01:35;24.80;99.90
21271;DHT22;10795;50.796;3.860;2022-09-21T13:09:47;24.40;99.90
21271;DHT22;10795;50.796;3.860;2022-09-21T13:12:23;23.70;99.90
21271;DHT22;10795;50.796;3.860;2022-09-21T13:14:56;23.60;99.90
21271;DHT22;10795;50.796;3.860;2022-09-21T13:17:29;24.30;99.90
21271;DHT22;10795;50.796;3.860;2022-09-21T13:22:34;23.80;99.90
21271;DHT22;10795;50.796;3.860;2022-09-21T13:25:06;23.50;99.90
21271;DHT22;10795;50.796;3.860;2022-09-21T13:28:03;22.70;99.90
21271;DHT22;10795;50.796;3.860;2022-09-21T13:30:42;22.60;99.90
21271;DHT22;10795;50.796;3.860;2022-09-21T13:38:33;22.40;99.90
21271;DHT22;10795;50.796;3.860;2022-09-21T13:43:45;22.70;99.90
21271;DHT22;10795;50.796;3.860;2022-09-21T13:49:02;23.00;99.90
21271;DHT22;10795;50.796;3.860;2022-09-21T13:51:32;23.00;99.90
21271;DHT22;10795;50.796;3.860;2022-09-21T13:54:00;23.30;99.90
21271;DHT22;10795;50.796;3.860;2022-09-21T13:56:27;23.10;99.90
21271;DHT22;10795;50.796;3.860;2022-09-21T13:58:55;22.80;99.90
21271;DHT22;10795;50.796;3.860;2022-09-21T14:01:24;22.70;99.90
21271;DHT22;10795;50.796;3.860;2022-09-21T14:04:03;22.80;99.90
21271;DHT22;10795;50.796;3.860;2022-09-21T14:06:43;22.30;99.90
21271;DHT22;10795;50.796;3.860;2022-09-21T14:12:40;22.50;99.90
21271;DHT22;10795;50.796;3.860;2022-09-21T14:17:41;22.80;99.90
21271;DHT22;10795;50.796;3.860;2022-09-21T14:20:29;23.00;99.90
21271;DHT22;10795;50.796;3.860;2022-09-21T14:25:50;23.20;99.90
21271;DHT22;10795;50.796;3.860;2022-09-21T14:31:07;22.60;99.90
21271;DHT22;10795;50.796;3.860;2022-09-21T14:34:03;22.90;99.90
21271;DHT22;10795;50.796;3.860;2022-09-21T14:36:44;22.90;99.90
21271;DHT22;10795;50.796;3.860;2022-09-21T14:39:31;22.20;99.90
21271;DHT22;10795;50.796;3.860;2022-09-21T14:42:01;21.40;99.90
21271;DHT22;10795;50.796;3.860;2022-09-21T14:44:29;21.50;99.90
21271;DHT22;10795;50.796;3.860;2022-09-21T14:50:01;21.50;99.90
21271;DHT22;10795;50.796;3.860;2022-09-21T14:58:54;20.80;99.90
21271;DHT22;10795;50.796;3.860;2022-09-21T15:10:01;20.80;99.90
21271;DHT22;10795;50.796;3.860;2022-09-21T15:12:54;20.60;99.90
21271;DHT22;10795;50.796;3.860;2022-09-21T15:18:17;20.70;99.90
21271;DHT22;10795;50.796;3.860;2022-09-21T15:20:57;21.30;99.90
21271;DHT22;10795;50.796;3.860;2022-09-21T15:23:33;21.00;99.90
21271;DHT22;10795;50.796;3.860;2022-09-21T15:26:08;20.50;99.90
21271;DHT22;10795;50.796;3.860;2022-09-21T15:28:41;21.10;99.90
21271;DHT22;10795;50.796;3.860;2022-09-21T15:31:08;20.70;99.90
21271;DHT22;10795;50.796;3.860;2022-09-21T15:33:38;20.50;99.90
21271;DHT22;10795;50.796;3.860;2022-09-21T15:36:04;21.20;99.90
21271;DHT22;10795;50.796;3.860;2022-09-21T15:38:32;21.30;99.90
21271;DHT22;10795;50.796;3.860;2022-09-21T15:41:01;21.30;99.90
21271;DHT22;10795;50.796;3.860;2022-09-21T15:43:26;21.00;99.90
21271;DHT22;10795;50.796;3.860;2022-09-21T15:48:26;20.90;99.90
21271;DHT22;10795;50.796;3.860;2022-09-21T15:53:55;20.20;99.90
21271;DHT22;10795;50.796;3.860;2022-09-21T15:56:26;20.90;99.90
21271;DHT22;10795;50.796;3.860;2022-09-21T15:59:03;20.40;99.90
21271;DHT22;10795;50.796;3.860;2022-09-21T16:01:42;20.90;99.90
21271;DHT22;10795;50.796;3.860;2022-09-21T16:04:15;21.00;99.90
21271;DHT22;10795;50.796;3.860;2022-09-21T16:06:44;20.70;99.90
21271;DHT22;10795;50.796;3.860;2022-09-21T16:11:53;20.90;99.90
21271;DHT22;10795;50.796;3.860;2022-09-21T16:14:20;20.70;99.90
21271;DHT22;10795;50.796;3.860;2022-09-21T16:19:41;19.80;99.90
21271;DHT22;10795;50.796;3.860;2022-09-21T16:22:11;19.50;99.90
21271;DHT22;10795;50.796;3.860;2022-09-21T16:24:42;19.90;99.90
21271;DHT22;10795;50.796;3.860;2022-09-21T16:27:15;19.40;99.90
21271;DHT22;10795;50.796;3.860;2022-09-21T16:29:43;19.50;99.90
21271;DHT22;10795;50.796;3.860;2022-09-21T16:34:52;19.10;99.90
21271;DHT22;10795;50.796;3.860;2022-09-21T16:39:49;19.10;99.90
21271;DHT22;10795;50.796;3.860;2022-09-21T16:42:15;19.00;99.90
21271;DHT22;10795;50.796;3.860;2022-09-21T16:44:41;18.50;99.90
21271;DHT22;10795;50.796;3.860;2022-09-21T16:47:17;18.20;99.90
21271;DHT22;10795;50.796;3.860;2022-09-21T16:49:45;18.00;99.90
21271;DHT22;10795;50.796;3.860;2022-09-21T16:52:11;18.40;99.90
21271;DHT22;10795;50.796;3.860;2022-09-21T16:54:37;18.20;99.90
21271;DHT22;10795;50.796;3.860;2022-09-21T16:57:04;17.80;99.90
21271;DHT22;10795;50.796;3.860;2022-09-21T16:59:31;17.60;99.90
21271;DHT22;10795;50.796;3.860;2022-09-21T17:01:58;17.30;99.90
21271;DHT22;10795;50.796;3.860;2022-09-21T17:04:30;17.30;99.90
21271;DHT22;10795;50.796;3.860;2022-09-21T17:06:57;17.10;99.90
21271;DHT22;10795;50.796;3.860;2022-09-21T17:09:30;17.10;99.90
21271;DHT22;10795;50.796;3.860;2022-09-21T17:12:01;17.00;99.90
21271;DHT22;10795;50.796;3.860;2022-09-21T17:14:31;17.00;99.90
21271;DHT22;10795;50.796;3.860;2022-09-21T17:19:35;18.40;99.90
21271;DHT22;10795;50.796;3.860;2022-09-21T17:22:02;19.10;99.90
21271;DHT22;10795;50.796;3.860;2022-09-21T17:24:28;19.20;99.90
21271;DHT22;10795;50.796;3.860;2022-09-21T17:26:55;19.30;99.90
21271;DHT22;10795;50.796;3.860;2022-09-21T17:29:26;19.50;99.90
21271;DHT22;10795;50.796;3.860;2022-09-21T17:31:56;19.40;99.90
21271;DHT22;10795;50.796;3.860;2022-09-21T17:34:26;19.50;99.90
21271;DHT22;10795;50.796;3.860;2022-09-21T17:36:53;19.50;99.90
21271;DHT22;10795;50.796;3.860;2022-09-21T17:39:20;19.20;99.90
21271;DHT22;10795;50.796;3.860;2022-09-21T17:41:56;19.00;99.90
21271;DHT22;10795;50.796;3.860;2022-09-21T17:47:28;18.90;99.90
21271;DHT22;10795;50.796;3.860;2022-09-21T17:50:25;18.60;99.90
21271;DHT22;10795;50.796;3.860;2022-09-21T17:52:53;18.30;99.90
21271;DHT22;10795;50.796;3.860;2022-09-21T17:55:48;18.50;99.90
21271;DHT22;10795;50.796;3.860;2022-09-21T18:03:35;18.40;99.90
21271;DHT22;10795;50.796;3.860;2022-09-21T18:06:07;17.90;99.90
21271;DHT22;10795;50.796;3.860;2022-09-21T18:08:34;17.60;99.90
21271;DHT22;10795;50.796;3.860;2022-09-21T18:22:23;17.70;99.90
21271;DHT22;10795;50.796;3.860;2022-09-21T18:24:54;16.00;99.90
21271;DHT22;10795;50.796;3.860;2022-09-21T18:27:20;15.10;99.90
21271;DHT22;10795;50.796;3.860;2022-09-21T18:29:47;14.70;99.90
21271;DHT22;10795;50.796;3.860;2022-09-21T18:32:27;14.50;99.90
21271;DHT22;10795;50.796;3.860;2022-09-21T18:40:39;14.20;99.90
21271;DHT22;10795;50.796;3.860;2022-09-21T18:46:12;13.90;99.90
21271;DHT22;10795;50.796;3.860;2022-09-21T18:48:54;13.80;99.90
21271;DHT22;10795;50.796;3.860;2022-09-21T18:51:35;13.70;99.90
21271;DHT22;10795;50.796;3.860;2022-09-21T18:54:04;13.70;99.90
21271;DHT22;10795;50.796;3.860;2022-09-21T18:56:32;13.60;99.90
21271;DHT22;10795;50.796;3.860;2022-09-21T18:58:59;13.40;99.90
21271;DHT22;10795;50.796;3.860;2022-09-21T19:01:26;13.30;99.90
21271;DHT22;10795;50.796;3.860;2022-09-21T19:03:57;13.30;99.90
21271;DHT22;10795;50.796;3.860;2022-09-21T19:14:47;13.10;99.90
21271;DHT22;10795;50.796;3.860;2022-09-21T19:25:49;13.10;99.90
21271;DHT22;10795;50.796;3.860;2022-09-21T19:28:37;13.00;99.90
21271;DHT22;10795;50.796;3.860;2022-09-21T19:31:11;13.70;99.90
21271;DHT22;10795;50.796;3.860;2022-09-21T19:33:37;13.30;99.90
21271;DHT22;10795;50.796;3.860;2022-09-21T19:36:03;13.10;99.90
21271;DHT22;10795;50.796;3.860;2022-09-21T19:38:30;12.90;99.90
21271;DHT22;10795;50.796;3.860;2022-09-21T19:41:22;12.80;99.90
21271;DHT22;10795;50.796;3.860;2022-09-21T19:43:58;12.60;99.90
21271;DHT22;10795;50.796;3.860;2022-09-21T19:49:18;12.40;99.90
21271;DHT22;10795;50.796;3.860;2022-09-21T19:51:49;12.40;99.90
21271;DHT22;10795;50.796;3.860;2022-09-21T19:54:20;12.30;99.90
21271;DHT22;10795;50.796;3.860;2022-09-21T19:57:16;12.30;99.90
21271;DHT22;10795;50.796;3.860;2022-09-21T20:00:02;12.30;99.90
21271;DHT22;10795;50.796;3.860;2022-09-21T20:02:33;12.20;99.90
21271;DHT22;10795;50.796;3.860;2022-09-21T20:05:11;12.20;99.90
21271;DHT22;10795;50.796;3.860;2022-09-21T20:07:55;12.10;99.90
21271;DHT22;10795;50.796;3.860;2022-09-21T20:15:41;11.80;99.90
21271;DHT22;10795;50.796;3.860;2022-09-21T20:18:53;11.90;99.90
21271;DHT22;10795;50.796;3.860;2022-09-21T20:21:00;11.90;99.90
21271;DHT22;10795;50.796;3.860;2022-09-21T20:23:26;11.90;99.90
21271;DHT22;10795;50.796;3.860;2022-09-21T20:25:55;11.70;99.90